createdAt,value
2022-11-17T00:01:21.780Z,97222.81
2022-11-17T00:03:49.262Z,97213.56
2022-11-17T00:06:16.330Z,97211.56
2022-11-17T00:08:43.218Z,97202.75
2022-11-17T00:11:09.883Z,97196.72
2022-11-17T00:13:54.983Z,97201.13
2022-11-17T00:16:22.103Z,97188.28
2022-11-17T00:19:08.981Z,97191.09
2022-11-17T00:21:35.656Z,97179.88
2022-11-17T00:24:02.898Z,97180.28
2022-11-17T00:26:30.874Z,97178.69
2022-11-17T00:28:58.798Z,97177.88
2022-11-17T00:31:44.887Z,97179.50
2022-11-17T00:34:13.236Z,97185.91
2022-11-17T00:36:41.350Z,97183.50
2022-11-17T00:39:08.935Z,97172.28
2022-11-17T00:41:41.646Z,97174.28
2022-11-17T00:44:09.082Z,97173.09
2022-11-17T00:46:37.310Z,97163.84
2022-11-17T00:49:04.499Z,97166.25
2022-11-17T00:51:31.212Z,97165.84
2022-11-17T00:53:57.862Z,97166.66
2022-11-17T00:56:25.822Z,97166.66
2022-11-17T00:58:52.776Z,97168.25
2022-11-17T01:01:19.767Z,97157.84
2022-11-17T01:03:46.561Z,97164.25
2022-11-17T01:06:14.644Z,97155.41
2022-11-17T01:08:41.652Z,97171.47
2022-11-17T01:11:11.489Z,97169.47
2022-11-17T01:13:38.923Z,97169.88
2022-11-17T01:16:10.100Z,97168.28
2022-11-17T01:18:37.344Z,97168.69
2022-11-17T01:21:09.325Z,97166.25
2022-11-17T01:23:36.795Z,97171.50
2022-11-17T01:26:04.832Z,97177.91
2022-11-17T01:28:31.511Z,97181.50
2022-11-17T01:31:04.795Z,97188.38
2022-11-17T01:33:31.872Z,97185.16
2022-11-17T01:36:06.088Z,97194.75
2022-11-17T01:38:33.050Z,97196.38
2022-11-17T01:41:00.488Z,97199.56
2022-11-17T01:43:56.365Z,97200.00
2022-11-17T01:46:29.728Z,97215.22
2022-11-17T01:48:59.467Z,97213.63
2022-11-17T01:51:27.820Z,97212.00
2022-11-17T01:53:54.425Z,97216.03
2022-11-17T01:56:24.950Z,97217.22
2022-11-17T01:58:55.029Z,97220.03
2022-11-17T02:01:21.708Z,97222.81
2022-11-17T02:03:49.308Z,97224.84
2022-11-17T02:06:18.872Z,97226.84
2022-11-17T02:08:47.186Z,97230.84
2022-11-17T02:11:16.372Z,97247.69
2022-11-17T02:13:42.956Z,97248.50
2022-11-17T02:16:11.674Z,97258.91
2022-11-17T02:18:38.687Z,97254.13
2022-11-17T02:21:24.382Z,97257.31
2022-11-17T02:24:09.612Z,97263.72
2022-11-17T02:26:59.147Z,97269.72
2022-11-17T02:29:52.643Z,97283.38
2022-11-17T02:32:24.746Z,97283.38
2022-11-17T02:35:17.762Z,97287.78
2022-11-17T02:37:44.311Z,97297.38
2022-11-17T02:40:14.713Z,97303.00
2022-11-17T02:43:05.886Z,97315.44
2022-11-17T02:45:54.525Z,97321.03
2022-11-17T02:48:27.493Z,97324.66
2022-11-17T02:50:54.983Z,97336.28
2022-11-17T02:53:23.213Z,97343.09
2022-11-17T02:55:50.974Z,97357.50
2022-11-17T02:58:18.391Z,97362.31
2022-11-17T03:00:55.958Z,97362.75
2022-11-17T03:03:22.557Z,97371.16
2022-11-17T03:06:15.747Z,97380.78
2022-11-17T03:08:42.299Z,97388.75
2022-11-17T03:11:09.255Z,97391.19
2022-11-17T03:13:54.409Z,97392.75
2022-11-17T03:16:38.609Z,97396.78
2022-11-17T03:19:14.214Z,97409.19
2022-11-17T03:21:46.678Z,97414.41
2022-11-17T03:24:18.327Z,97423.22
2022-11-17T03:26:48.109Z,97432.03
2022-11-17T03:29:17.006Z,97441.25
2022-11-17T03:31:45.736Z,97443.63
2022-11-17T03:34:14.874Z,97457.25
2022-11-17T03:36:43.476Z,97457.25
2022-11-17T03:39:13.050Z,97471.28
2022-11-17T03:41:43.011Z,97472.88
2022-11-17T03:44:10.229Z,97479.69
2022-11-17T03:46:38.941Z,97482.06
2022-11-17T03:49:11.585Z,97492.09
2022-11-17T03:51:38.513Z,97495.28
2022-11-17T03:54:05.689Z,97510.91
2022-11-17T03:56:41.416Z,97515.31
2022-11-17T03:59:24.974Z,97527.75
2022-11-17T04:01:51.998Z,97528.94
2022-11-17T04:04:20.560Z,97533.31
2022-11-17T04:06:47.797Z,97555.34
2022-11-17T04:09:15.239Z,97551.75
2022-11-17T04:12:02.648Z,97564.56
2022-11-17T04:14:47.687Z,97582.16
2022-11-17T04:17:14.519Z,97577.78
2022-11-17T04:19:41.421Z,97578.13
2022-11-17T04:22:08.039Z,97582.94
2022-11-17T04:24:34.678Z,97586.13
2022-11-17T04:27:19.741Z,97593.78
2022-11-17T04:29:46.342Z,97608.97
2022-11-17T04:32:13.032Z,97617.78
2022-11-17T04:34:41.815Z,97610.59
2022-11-17T04:37:17.616Z,97624.19
2022-11-17T04:39:45.134Z,97625.78
2022-11-17T04:42:12.270Z,97628.59
2022-11-17T04:44:38.913Z,97627.78
2022-11-17T04:47:07.075Z,97638.19
2022-11-17T04:49:33.721Z,97639.75
2022-11-17T04:52:00.484Z,97642.97
2022-11-17T04:54:27.236Z,97641.34
2022-11-17T04:56:54.302Z,97642.53
2022-11-17T04:59:20.852Z,97650.88
2022-11-17T05:01:47.540Z,97651.69
2022-11-17T05:04:15.580Z,97649.63
2022-11-17T05:06:43.399Z,97661.66
2022-11-17T05:09:11.939Z,97664.88
2022-11-17T05:11:57.410Z,97672.47
2022-11-17T05:14:25.295Z,97677.66
2022-11-17T05:17:10.775Z,97678.84
2022-11-17T05:19:41.166Z,97684.06
2022-11-17T05:22:28.459Z,97699.66
2022-11-17T05:24:56.108Z,97710.47
2022-11-17T05:27:23.363Z,97707.66
2022-11-17T05:29:49.987Z,97716.06
2022-11-17T05:32:16.716Z,97719.66
2022-11-17T05:34:43.350Z,97734.13
2022-11-17T05:37:10.281Z,97738.50
2022-11-17T05:39:37.021Z,97749.38
2022-11-17T05:42:03.770Z,97748.25
2022-11-17T05:44:30.471Z,97754.31
2022-11-17T05:46:57.037Z,97755.50
2022-11-17T05:49:24.225Z,97771.59
2022-11-17T05:51:52.919Z,97766.38
2022-11-17T05:54:20.129Z,97773.25
2022-11-17T05:56:51.589Z,97783.69
2022-11-17T05:59:27.287Z,97772.84
2022-11-17T06:02:00.109Z,97784.94
2022-11-17T06:04:26.771Z,97786.16
2022-11-17T06:06:54.569Z,97791.81
2022-11-17T06:09:21.264Z,97810.28
2022-11-17T06:11:47.885Z,97810.31
2022-11-17T06:14:16.991Z,97811.97
2022-11-17T06:16:46.442Z,97816.00
2022-11-17T06:19:20.165Z,97816.03
2022-11-17T06:22:10.672Z,97832.53
2022-11-17T06:24:34.186Z,97835.34
2022-11-17T06:27:01.072Z,97832.56
2022-11-17T06:29:29.087Z,97839.84
2022-11-17T06:31:57.155Z,97849.50
2022-11-17T06:34:25.043Z,97836.69
2022-11-17T06:36:53.645Z,97855.56
2022-11-17T06:39:20.191Z,97857.97
2022-11-17T06:41:46.765Z,97869.22
2022-11-17T06:44:13.331Z,97868.84
2022-11-17T06:46:41.797Z,97870.47
2022-11-17T06:49:11.584Z,97878.13
2022-11-17T06:51:43.754Z,97877.75
2022-11-17T06:54:12.559Z,97892.19
2022-11-17T06:56:41.413Z,97900.25
2022-11-17T06:59:08.143Z,97887.03
2022-11-17T07:01:34.942Z,97900.69
2022-11-17T07:04:01.614Z,97893.84
2022-11-17T07:06:28.298Z,97910.31
2022-11-17T07:08:55.067Z,97905.50
2022-11-17T07:11:21.886Z,97918.38
2022-11-17T07:13:48.609Z,97921.19
2022-11-17T07:16:22.978Z,97927.19
2022-11-17T07:18:50.658Z,97928.00
2022-11-17T07:21:18.244Z,97927.25
2022-11-17T07:23:45.951Z,97928.84
2022-11-17T07:26:12.929Z,97930.09
2022-11-17T07:28:43.604Z,97935.28
2022-11-17T07:31:10.261Z,97934.94
2022-11-17T07:33:36.954Z,97940.56
2022-11-17T07:36:04.727Z,97943.44
2022-11-17T07:38:32.685Z,97943.84
2022-11-17T07:41:00.670Z,97957.91
2022-11-17T07:43:27.319Z,97965.16
2022-11-17T07:45:54.138Z,97952.75
2022-11-17T07:48:20.878Z,97976.84
2022-11-17T07:50:47.603Z,97975.66
2022-11-17T07:53:15.522Z,97979.25
2022-11-17T07:55:42.194Z,97977.69
2022-11-17T07:58:08.969Z,97984.09
2022-11-17T08:00:35.658Z,97989.72
2022-11-17T08:03:04.325Z,97989.72
2022-11-17T08:05:33.002Z,97994.94
2022-11-17T08:08:01.658Z,97997.75
2022-11-17T08:10:31.416Z,97998.97
2022-11-17T08:12:59.620Z,98005.38
2022-11-17T08:15:26.404Z,98001.75
2022-11-17T08:17:53.742Z,98005.38
2022-11-17T08:20:20.886Z,98015.81
2022-11-17T08:22:49.134Z,98014.56
2022-11-17T08:25:27.083Z,98008.94
2022-11-17T08:27:58.045Z,98023.75
2022-11-17T08:30:25.295Z,98023.31
2022-11-17T08:32:52.872Z,98015.34
2022-11-17T08:35:34.263Z,98028.19
2022-11-17T08:38:03.867Z,98033.81
2022-11-17T08:40:30.607Z,98037.34
2022-11-17T08:43:01.162Z,98036.50
2022-11-17T08:45:28.242Z,98045.78
2022-11-17T08:47:55.835Z,98045.34
2022-11-17T08:50:25.953Z,98051.31
2022-11-17T08:52:53.317Z,98053.72
2022-11-17T08:55:26.643Z,98054.50
2022-11-17T08:57:53.381Z,98063.34
2022-11-17T09:00:21.965Z,98058.91
2022-11-17T09:02:48.803Z,98051.25
2022-11-17T09:05:21.321Z,98059.69
2022-11-17T09:07:48.330Z,98062.84
2022-11-17T09:10:15.010Z,98059.22
2022-11-17T09:12:41.914Z,98059.19
2022-11-17T09:15:08.875Z,98057.56
2022-11-17T09:17:36.034Z,98072.78
2022-11-17T09:20:02.714Z,98079.63
2022-11-17T09:22:29.373Z,98071.56
2022-11-17T09:24:55.984Z,98082.34
2022-11-17T09:27:22.795Z,98091.59
2022-11-17T09:29:49.503Z,98082.31
2022-11-17T09:32:17.062Z,98089.91
2022-11-17T09:34:44.003Z,98095.94
2022-11-17T09:37:10.694Z,98099.09
2022-11-17T09:39:37.326Z,98102.69
2022-11-17T09:42:04.187Z,98110.28
2022-11-17T09:44:42.261Z,98106.22
2022-11-17T09:47:27.822Z,98108.63
2022-11-17T09:49:59.254Z,98114.97
2022-11-17T09:52:31.281Z,98122.22
2022-11-17T09:55:31.126Z,98114.97
2022-11-17T09:58:20.710Z,98125.78
2022-11-17T10:00:49.117Z,98127.72
2022-11-17T10:03:20.389Z,98137.69
2022-11-17T10:05:48.151Z,98135.66
2022-11-17T10:08:29.975Z,98134.78
2022-11-17T10:10:56.593Z,98136.41
2022-11-17T10:13:33.769Z,98141.53
2022-11-17T10:16:05.275Z,98147.94
2022-11-17T10:18:39.835Z,98156.41
2022-11-17T10:21:07.575Z,98150.75
2022-11-17T10:23:44.399Z,98149.09
2022-11-17T10:26:14.138Z,98159.50
2022-11-17T10:28:40.914Z,98162.28
2022-11-17T10:31:10.422Z,98172.69
2022-11-17T10:33:39.554Z,98174.31
2022-11-17T10:36:19.228Z,98175.56
2022-11-17T10:38:47.474Z,98171.22
2022-11-17T10:41:16.986Z,98184.84
2022-11-17T10:43:52.060Z,98169.25
2022-11-17T10:46:24.239Z,98178.09
2022-11-17T10:48:55.997Z,98186.59
2022-11-17T10:51:26.810Z,98187.47
2022-11-17T10:54:07.300Z,98190.31
2022-11-17T10:56:39.614Z,98192.00
2022-11-17T10:59:27.756Z,98198.47
2022-11-17T11:01:54.417Z,98184.47
2022-11-17T11:04:32.300Z,98181.72
2022-11-17T11:07:19.625Z,98189.00
2022-11-17T11:10:01.015Z,98183.47
2022-11-17T11:12:41.542Z,98189.13
2022-11-17T11:15:24.366Z,98186.38
2022-11-17T11:17:51.656Z,98193.66
2022-11-17T11:20:20.180Z,98194.88
2022-11-17T11:22:49.032Z,98204.94
2022-11-17T11:25:24.908Z,98195.41
2022-11-17T11:28:10.067Z,98197.84
2022-11-17T11:30:41.918Z,98193.84
2022-11-17T11:33:27.216Z,98199.88
2022-11-17T11:36:05.819Z,98210.38
2022-11-17T11:38:45.063Z,98202.72
2022-11-17T11:41:11.632Z,98202.34
2022-11-17T11:43:38.241Z,98221.19
2022-11-17T11:46:16.482Z,98207.97
2022-11-17T11:48:43.108Z,98209.59
2022-11-17T11:51:18.418Z,98218.44
2022-11-17T11:53:52.777Z,98222.06
2022-11-17T11:56:22.401Z,98208.41
2022-11-17T11:58:54.721Z,98211.22
2022-11-17T12:01:23.104Z,98216.44
2022-11-17T12:04:12.877Z,98214.44
2022-11-17T12:06:47.618Z,98210.00
2022-11-17T12:09:17.240Z,98221.66
2022-11-17T12:12:10.765Z,98228.06
2022-11-17T12:14:38.320Z,98233.69
2022-11-17T12:17:06.623Z,98229.66
2022-11-17T12:19:42.902Z,98224.06
2022-11-17T12:22:10.139Z,98224.06
2022-11-17T12:24:40.709Z,98216.03
2022-11-17T12:27:25.849Z,98241.66
2022-11-17T12:29:52.496Z,98238.78
2022-11-17T12:32:37.604Z,98237.56
2022-11-17T12:35:24.361Z,98232.75
2022-11-17T12:37:54.459Z,98237.56
2022-11-17T12:40:24.603Z,98226.31
2022-11-17T12:42:54.725Z,98241.94
2022-11-17T12:45:21.743Z,98248.78
2022-11-17T12:48:05.245Z,98253.22
2022-11-17T12:50:42.067Z,98247.59
2022-11-17T12:53:12.449Z,98261.66
2022-11-17T12:55:39.756Z,98260.47
2022-11-17T12:58:10.827Z,98260.47
2022-11-17T13:00:43.659Z,98260.91
2022-11-17T13:03:13.829Z,98267.31
2022-11-17T13:05:40.903Z,98262.50
2022-11-17T13:08:12.675Z,98267.75
2022-11-17T13:10:40.156Z,98273.41
2022-11-17T13:13:10.759Z,98272.25
2022-11-17T13:15:38.617Z,98275.50
2022-11-17T13:18:08.921Z,98269.88
2022-11-17T13:20:36.275Z,98271.47
2022-11-17T13:23:07.118Z,98282.34
2022-11-17T13:25:35.065Z,98285.97
2022-11-17T13:28:05.150Z,98286.38
2022-11-17T13:30:33.177Z,98290.81
2022-11-17T13:33:01.784Z,98293.25
2022-11-17T13:35:30.454Z,98296.88
2022-11-17T13:38:00.675Z,98298.88
2022-11-17T13:40:28.818Z,98303.72
2022-11-17T13:42:56.859Z,98305.72
2022-11-17T13:45:25.260Z,98307.72
2022-11-17T13:47:54.804Z,98312.91
2022-11-17T13:50:25.024Z,98311.28
2022-11-17T13:52:53.908Z,98307.66
2022-11-17T13:57:59.908Z,98305.66
2022-11-17T14:00:27.257Z,98309.25
2022-11-17T14:02:55.647Z,98318.47
2022-11-17T14:05:26.116Z,98313.69
2022-11-17T14:07:53.883Z,98314.41
2022-11-17T14:10:21.285Z,98311.59
2022-11-17T14:12:50.312Z,98312.00
2022-11-17T14:15:23.195Z,98308.75
2022-11-17T14:17:51.027Z,98302.75
2022-11-17T14:20:21.406Z,98316.00
2022-11-17T14:22:56.461Z,98315.19
2022-11-17T14:25:23.537Z,98309.94
2022-11-17T14:27:53.325Z,98323.09
2022-11-17T14:30:20.579Z,98310.25
2022-11-17T14:32:47.855Z,98311.06
2022-11-17T14:37:44.113Z,98320.66
2022-11-17T14:40:14.269Z,98324.25
2022-11-17T14:42:42.579Z,98327.03
2022-11-17T14:45:13.483Z,98316.19
2022-11-17T14:47:41.119Z,98321.00
2022-11-17T14:50:08.995Z,98317.75
2022-11-17T14:55:08.412Z,98334.47
2022-11-17T14:57:39.024Z,98327.28
2022-11-17T15:00:07.243Z,98321.66
2022-11-17T15:02:34.724Z,98334.06
2022-11-17T15:05:01.892Z,98338.88
2022-11-17T15:07:29.070Z,98347.59
2022-11-17T15:09:55.749Z,98354.03
2022-11-17T15:12:23.567Z,98353.63
2022-11-17T15:14:57.606Z,98353.16
2022-11-17T15:17:24.911Z,98352.34
2022-11-17T15:19:51.952Z,98361.19
2022-11-17T15:22:18.606Z,98359.03
2022-11-17T15:24:45.355Z,98360.59
2022-11-17T15:27:13.816Z,98363.41
2022-11-17T15:29:40.447Z,98369.03
2022-11-17T15:32:07.916Z,98368.94
2022-11-17T15:34:34.607Z,98372.56
2022-11-17T15:37:01.177Z,98371.31
2022-11-17T15:39:27.864Z,98369.34
2022-11-17T15:41:54.450Z,98373.31
2022-11-17T15:44:21.053Z,98379.69
2022-11-17T15:46:48.167Z,98376.38
2022-11-17T15:49:15.364Z,98379.53
2022-11-17T15:51:42.260Z,98388.78
2022-11-17T15:54:16.422Z,98384.72
2022-11-17T15:56:46.510Z,98389.47
2022-11-17T15:59:15.031Z,98388.25
2022-11-17T16:01:41.904Z,98387.38
2022-11-17T16:04:09.558Z,98394.63
2022-11-17T16:06:37.047Z,98399.41
2022-11-17T16:09:03.940Z,98399.34
2022-11-17T16:11:30.761Z,98396.91
2022-11-17T16:13:59.508Z,98403.72
2022-11-17T16:16:27.857Z,98406.91
2022-11-17T16:18:54.765Z,98401.28
2022-11-17T16:21:21.439Z,98406.44
2022-11-17T16:23:49.436Z,98408.44
2022-11-17T16:26:18.589Z,98420.03
2022-11-17T16:28:46.940Z,98417.94
2022-11-17T16:31:14.891Z,98420.75
2022-11-17T16:33:46.621Z,98417.94
2022-11-17T16:36:13.176Z,98428.38
2022-11-17T16:38:55.071Z,98426.31
2022-11-17T16:41:31.383Z,98421.09
2022-11-17T16:43:58.542Z,98426.59
2022-11-17T16:46:26.610Z,98440.63
2022-11-17T16:48:53.478Z,98433.41
2022-11-17T16:51:20.807Z,98436.22
2022-11-17T16:53:50.923Z,98436.94
2022-11-17T16:56:17.617Z,98443.63
2022-11-17T16:58:44.222Z,98454.84
2022-11-17T17:01:15.327Z,98449.97
2022-11-17T17:03:42.474Z,98451.50
2022-11-17T17:06:11.041Z,98438.69
2022-11-17T17:08:37.929Z,98456.31
2022-11-17T17:11:05.785Z,98458.19
2022-11-17T17:13:33.247Z,98453.81
2022-11-17T17:16:07.439Z,98463.38
2022-11-17T17:18:34.482Z,98458.94
2022-11-17T17:21:01.265Z,98466.94
2022-11-17T17:23:28.278Z,98459.22
2022-11-17T17:26:05.435Z,98466.81
2022-11-17T17:28:33.043Z,98472.81
2022-11-17T17:30:59.898Z,98478.31
2022-11-17T17:33:27.288Z,98478.72
2022-11-17T17:35:54.042Z,98476.25
2022-11-17T17:38:20.638Z,98486.22
2022-11-17T17:40:47.299Z,98486.56
2022-11-17T17:43:13.974Z,98477.72
2022-11-17T17:45:40.614Z,98492.53
2022-11-17T17:48:07.640Z,98491.28
2022-11-17T17:50:34.550Z,98494.09
2022-11-17T17:53:01.336Z,98494.84
2022-11-17T17:55:27.946Z,98497.63
2022-11-17T17:57:54.912Z,98502.78
2022-11-17T18:00:21.529Z,98499.50
2022-11-17T18:02:48.191Z,98503.88
2022-11-17T18:05:24.322Z,98505.03
2022-11-17T18:07:50.990Z,98511.81
2022-11-17T18:10:17.590Z,98522.50
2022-11-17T18:12:46.074Z,98524.50
2022-11-17T18:15:23.350Z,98524.09
2022-11-17T18:17:49.948Z,98534.06
2022-11-17T18:20:16.722Z,98540.84
2022-11-17T18:22:43.354Z,98543.63
2022-11-17T18:25:20.253Z,98540.03
2022-11-17T18:27:46.903Z,98543.22
2022-11-17T18:30:16.790Z,98552.03
2022-11-17T18:32:43.444Z,98551.34
2022-11-17T18:35:10.086Z,98543.84
2022-11-17T18:37:36.826Z,98550.25
2022-11-17T18:40:04.084Z,98545.44
2022-11-17T18:42:32.278Z,98551.03
2022-11-17T18:44:58.914Z,98545.91
2022-11-17T18:47:25.673Z,98549.53
2022-11-17T18:49:52.353Z,98559.63
2022-11-17T18:52:19.047Z,98555.28
2022-11-17T18:54:46.120Z,98559.00
2022-11-17T18:57:12.787Z,98561.09
2022-11-17T18:59:39.430Z,98565.13
2022-11-17T19:02:06.041Z,98557.63
2022-11-17T19:04:32.777Z,98566.94
2022-11-17T19:07:00.081Z,98569.84
2022-11-17T19:09:26.778Z,98571.09
2022-11-17T19:11:53.387Z,98580.41
2022-11-17T19:14:20.043Z,98585.31
2022-11-17T19:16:46.840Z,98591.00
2022-11-17T19:19:14.243Z,98584.31
2022-11-17T19:21:41.252Z,98587.19
2022-11-17T19:24:08.144Z,98590.09
2022-11-17T19:26:36.205Z,98588.16
2022-11-17T19:29:04.238Z,98594.25
2022-11-17T19:31:31.217Z,98585.91
2022-11-17T19:33:58.277Z,98596.38
2022-11-17T19:36:29.595Z,98593.22
2022-11-17T19:38:57.440Z,98600.91
2022-11-17T19:41:25.626Z,98604.16
2022-11-17T19:43:53.377Z,98602.59
2022-11-17T19:46:20.227Z,98602.25
2022-11-17T19:48:46.874Z,98605.94
2022-11-17T19:51:20.382Z,98614.81
2022-11-17T19:53:47.829Z,98626.47
2022-11-17T19:56:15.051Z,98623.66
2022-11-17T19:58:41.696Z,98622.94
2022-11-17T20:01:13.183Z,98620.16
2022-11-17T20:03:40.246Z,98622.56
2022-11-17T20:06:10.217Z,98636.59
2022-11-17T20:08:36.876Z,98639.88
2022-11-17T20:11:06.636Z,98636.25
2022-11-17T20:13:33.788Z,98635.44
2022-11-17T20:16:03.497Z,98639.41
2022-11-17T20:18:33.085Z,98645.47
2022-11-17T20:20:59.813Z,98643.84
2022-11-17T20:23:26.547Z,98655.06
2022-11-17T20:25:53.219Z,98657.41
2022-11-17T20:28:19.903Z,98655.88
2022-11-17T20:30:46.751Z,98662.69
2022-11-17T20:33:13.455Z,98661.84
2022-11-17T20:35:40.154Z,98664.66
2022-11-17T20:38:07.913Z,98677.53
2022-11-17T20:40:36.188Z,98676.28
2022-11-17T20:43:02.891Z,98687.50
2022-11-17T20:45:29.605Z,98682.59
2022-11-17T20:47:56.214Z,98687.84
2022-11-17T20:50:22.809Z,98690.59
2022-11-17T20:52:49.402Z,98698.25
2022-11-17T20:55:33.001Z,98696.38
2022-11-17T20:57:59.768Z,98695.09
2022-11-17T21:00:26.350Z,98717.56
2022-11-17T21:02:53.045Z,98704.00
2022-11-17T21:05:23.413Z,98714.84
2022-11-17T21:07:50.375Z,98714.94
2022-11-17T21:10:16.964Z,98720.63
2022-11-17T21:12:43.608Z,98725.50
2022-11-17T21:15:10.436Z,98726.78
2022-11-17T21:17:55.499Z,98737.28
2022-11-17T21:20:22.258Z,98736.53
2022-11-17T21:22:49.131Z,98743.03
2022-11-17T21:25:25.602Z,98744.69
2022-11-17T21:27:52.612Z,98741.13
2022-11-17T21:30:19.634Z,98747.22
2022-11-17T21:32:46.392Z,98751.28
2022-11-17T21:35:19.384Z,98760.16
2022-11-17T21:37:46.029Z,98766.59
2022-11-17T21:40:12.743Z,98771.47
2022-11-17T21:42:39.657Z,98773.91
2022-11-17T21:45:06.626Z,98782.78
2022-11-17T21:47:33.246Z,98772.38
2022-11-17T21:49:59.827Z,98788.50
2022-11-17T21:52:26.636Z,98780.06
2022-11-17T21:54:53.724Z,98781.69
2022-11-17T21:57:20.466Z,98780.50
2022-11-17T21:59:47.104Z,98792.56
2022-11-17T22:02:13.701Z,98795.00
2022-11-17T22:04:40.325Z,98799.44
2022-11-17T22:07:07.088Z,98800.63
2022-11-17T22:09:34.086Z,98801.44
2022-11-17T22:12:01.319Z,98807.88
2022-11-17T22:14:27.974Z,98807.88
2022-11-17T22:16:55.516Z,98806.25
2022-11-17T22:19:23.169Z,98810.22
2022-11-17T22:21:50.970Z,98811.41
2022-11-17T22:24:18.666Z,98818.19
2022-11-17T22:26:45.734Z,98817.41
2022-11-17T22:29:14.126Z,98832.59
2022-11-17T22:31:41.325Z,98823.38
2022-11-17T22:34:07.973Z,98826.16
2022-11-17T22:36:34.621Z,98829.81
2022-11-17T22:39:01.278Z,98824.53
2022-11-17T22:41:28.099Z,98830.97
2022-11-17T22:43:55.632Z,98838.56
2022-11-17T22:46:24.160Z,98842.56
2022-11-17T22:48:51.161Z,98836.13
2022-11-17T22:51:38.150Z,98842.56
2022-11-17T22:54:05.432Z,98839.75
2022-11-17T22:56:32.713Z,98844.94
2022-11-17T22:59:00.086Z,98847.72
2022-11-17T23:01:27.977Z,98854.53
2022-11-17T23:03:54.744Z,98861.31
2022-11-17T23:06:23.417Z,98862.47
2022-11-17T23:08:50.560Z,98876.06
2022-11-17T23:14:05.554Z,98867.66
2022-11-17T23:16:33.324Z,98874.00
2022-11-17T23:18:59.958Z,98877.50
2022-11-17T23:21:26.621Z,98872.97
2022-11-17T23:23:53.256Z,98876.97
2022-11-17T23:26:20.049Z,98883.31
2022-11-17T23:28:46.716Z,98890.47
2022-11-17T23:31:14.244Z,98901.56
2022-11-17T23:33:42.034Z,98897.59
2022-11-17T23:36:12.520Z,98900.78
2022-11-17T23:38:39.219Z,98904.94
2022-11-17T23:41:07.208Z,98911.47
2022-11-17T23:43:33.863Z,98911.94
2022-11-17T23:46:13.628Z,98923.59
2022-11-17T23:48:40.744Z,98922.06
2022-11-17T23:51:09.246Z,98934.56
2022-11-17T23:53:35.904Z,98931.41
2022-11-17T23:56:03.132Z,98938.28
2022-11-17T23:58:30.372Z,98943.19
